createdAt,value
2019-03-09T00:00:46.065Z,10.90
2019-03-09T00:03:14.695Z,6.37
2019-03-09T00:05:43.285Z,10.87
2019-03-09T00:08:11.845Z,7.60
2019-03-09T00:10:40.485Z,8.73
2019-03-09T00:13:09.279Z,9.13
2019-03-09T00:15:37.841Z,9.80
2019-03-09T00:18:06.802Z,7.87
2019-03-09T00:20:35.679Z,9.27
2019-03-09T00:23:14.891Z,6.50
2019-03-09T00:26:01.289Z,7.20
2019-03-09T00:28:48.218Z,9.53
2019-03-09T00:31:35.735Z,9.60
2019-03-09T00:34:04.518Z,9.13
2019-03-09T00:36:33.103Z,7.13
2019-03-09T00:39:01.702Z,8.13
2019-03-09T00:41:30.554Z,7.80
2019-03-09T00:43:59.149Z,9.00
2019-03-09T00:46:27.711Z,14.83
2019-03-09T00:48:56.361Z,5.40
2019-03-09T00:51:24.984Z,8.50
2019-03-09T00:53:53.568Z,8.83
2019-03-09T00:56:22.221Z,9.27
2019-03-09T00:58:50.788Z,6.50
2019-03-09T01:01:19.418Z,7.77
2019-03-09T01:03:48.081Z,7.47
2019-03-09T01:06:16.641Z,5.60
2019-03-09T01:08:45.217Z,6.07
2019-03-09T01:11:14.259Z,4.70
2019-03-09T01:13:42.847Z,7.90
2019-03-09T01:16:11.480Z,4.37
2019-03-09T01:18:40.143Z,4.03
2019-03-09T01:21:08.767Z,9.53
2019-03-09T01:23:37.395Z,5.10
2019-03-09T01:26:05.965Z,5.93
2019-03-09T01:28:35.093Z,5.37
2019-03-09T01:31:04.525Z,6.13
2019-03-09T01:33:33.179Z,5.93
2019-03-09T01:36:01.733Z,6.77
2019-03-09T01:38:30.306Z,9.17
2019-03-09T01:40:58.868Z,7.33
2019-03-09T01:43:27.526Z,8.23
2019-03-09T01:45:56.161Z,8.47
2019-03-09T01:48:24.733Z,10.23
2019-03-09T01:50:53.656Z,9.00
2019-03-09T01:53:22.245Z,8.20
2019-03-09T01:55:50.835Z,8.20
2019-03-09T01:58:19.415Z,9.97
2019-03-09T02:00:47.984Z,9.70
2019-03-09T02:03:16.557Z,13.17
2019-03-09T02:05:45.120Z,10.27
2019-03-09T02:08:13.724Z,12.90
2019-03-09T02:10:42.705Z,11.27
2019-03-09T02:13:11.376Z,16.83
2019-03-09T02:15:40.105Z,12.57
2019-03-09T02:18:08.728Z,11.83
2019-03-09T02:20:37.313Z,10.10
2019-03-09T02:23:05.943Z,11.30
2019-03-09T02:25:34.614Z,15.63
2019-03-09T02:28:03.556Z,19.90
2019-03-09T02:30:32.147Z,15.97
2019-03-09T02:33:00.783Z,13.07
2019-03-09T02:35:29.363Z,14.17
2019-03-09T02:37:59.569Z,15.77
2019-03-09T02:40:29.510Z,15.27
2019-03-09T02:42:58.457Z,15.23
2019-03-09T02:45:28.663Z,20.03
2019-03-09T02:47:57.571Z,18.37
2019-03-09T02:50:26.128Z,14.03
2019-03-09T02:52:54.728Z,16.67
2019-03-09T02:55:23.282Z,17.20
2019-03-09T02:57:51.858Z,16.60
2019-03-09T03:00:21.259Z,15.03
2019-03-09T03:02:51.485Z,21.80
2019-03-09T03:05:20.554Z,19.43
2019-03-09T03:07:49.218Z,26.27
2019-03-09T03:10:17.793Z,22.67
2019-03-09T03:12:46.452Z,18.70
2019-03-09T03:15:35.297Z,19.70
2019-03-09T03:18:04.238Z,19.07
2019-03-09T03:20:32.952Z,19.93
2019-03-09T03:23:01.615Z,23.97
2019-03-09T03:25:30.243Z,24.97
2019-03-09T03:27:58.895Z,18.67
2019-03-09T03:30:27.464Z,28.17
2019-03-09T03:32:57.861Z,22.90
2019-03-09T03:35:26.455Z,27.67
2019-03-09T03:37:55.040Z,19.20
2019-03-09T03:40:23.616Z,24.97
2019-03-09T03:42:52.602Z,21.27
2019-03-09T03:45:21.599Z,15.90
2019-03-09T03:47:50.160Z,20.93
2019-03-09T03:50:19.189Z,28.30
2019-03-09T03:52:47.745Z,19.43
2019-03-09T03:55:16.419Z,25.53
2019-03-09T03:57:45.121Z,28.10
2019-03-09T04:00:15.284Z,20.10
2019-03-09T04:02:43.967Z,18.73
2019-03-09T04:05:12.676Z,22.93
2019-03-09T04:07:41.634Z,28.97
2019-03-09T04:10:12.817Z,21.27
2019-03-09T04:12:42.717Z,20.40
2019-03-09T04:15:11.708Z,20.40
2019-03-09T04:17:40.262Z,22.57
2019-03-09T04:20:11.084Z,20.50
2019-03-09T04:22:39.623Z,13.10
2019-03-09T04:25:08.850Z,20.93
2019-03-09T04:27:37.472Z,19.63
2019-03-09T04:30:13.740Z,16.43
2019-03-09T04:32:42.310Z,16.13
2019-03-09T04:35:11.059Z,19.13
2019-03-09T04:37:39.615Z,11.20
2019-03-09T04:40:11.104Z,14.57
2019-03-09T04:42:39.661Z,17.63
2019-03-09T04:45:10.952Z,11.03
2019-03-09T04:47:39.932Z,14.07
2019-03-09T04:50:13.171Z,16.57
2019-03-09T04:52:50.730Z,15.73
2019-03-09T04:55:19.386Z,19.83
2019-03-09T04:57:47.946Z,17.73
2019-03-09T05:00:16.782Z,14.00
2019-03-09T05:02:45.331Z,14.27
2019-03-09T05:05:13.915Z,19.90
2019-03-09T05:07:45.209Z,15.27
2019-03-09T05:10:19.906Z,17.20
2019-03-09T05:12:51.774Z,18.17
2019-03-09T05:15:20.381Z,20.83
2019-03-09T05:17:49.283Z,24.67
2019-03-09T05:20:17.862Z,26.03
2019-03-09T05:22:46.496Z,22.43
2019-03-09T05:25:15.124Z,17.97
2019-03-09T05:27:43.798Z,21.30
2019-03-09T05:30:17.945Z,21.70
2019-03-09T05:32:46.533Z,26.10
2019-03-09T05:35:15.104Z,22.03
2019-03-09T05:37:43.703Z,19.73
2019-03-09T05:40:12.331Z,22.00
2019-03-09T05:42:40.907Z,26.37
2019-03-09T05:45:09.663Z,24.57
2019-03-09T05:47:38.240Z,22.90
2019-03-09T05:50:07.935Z,25.73
2019-03-09T05:52:36.665Z,19.83
2019-03-09T05:55:08.300Z,22.07
2019-03-09T05:57:36.891Z,17.63
2019-03-09T06:00:11.822Z,19.10
2019-03-09T06:02:40.411Z,15.20
2019-03-09T06:05:34.273Z,16.23
2019-03-09T06:08:03.017Z,19.60
2019-03-09T06:10:31.555Z,17.97
2019-03-09T06:13:00.293Z,19.73
2019-03-09T06:15:28.987Z,17.93
2019-03-09T06:17:57.708Z,20.43
2019-03-09T06:20:26.364Z,18.93
2019-03-09T06:22:55.066Z,19.67
2019-03-09T06:25:23.634Z,15.17
2019-03-09T06:27:52.200Z,22.03
2019-03-09T06:30:20.932Z,15.17
2019-03-09T06:33:26.334Z,20.40
2019-03-09T06:36:10.245Z,17.40
2019-03-09T06:38:52.748Z,18.83
2019-03-09T06:41:39.774Z,23.30
2019-03-09T06:44:08.328Z,13.77
2019-03-09T06:46:36.977Z,21.30
2019-03-09T06:49:05.541Z,17.77
2019-03-09T06:51:34.121Z,19.80
2019-03-09T06:54:02.712Z,21.80
2019-03-09T06:56:31.351Z,27.67
2019-03-09T06:59:00.202Z,21.67
2019-03-09T07:01:28.778Z,20.17
2019-03-09T07:03:57.350Z,23.50
2019-03-09T07:06:25.991Z,16.97
2019-03-09T07:08:54.894Z,16.50
2019-03-09T07:11:23.482Z,17.93
2019-03-09T07:13:53.166Z,14.50
2019-03-09T07:16:22.281Z,19.33
2019-03-09T07:18:50.900Z,19.73
2019-03-09T07:21:19.767Z,19.00
2019-03-09T07:23:48.391Z,17.33
2019-03-09T07:26:16.987Z,13.33
2019-03-09T07:28:46.722Z,18.77
2019-03-09T07:31:15.256Z,17.87
2019-03-09T07:33:43.815Z,16.63
2019-03-09T07:36:12.706Z,16.83
2019-03-09T07:38:41.264Z,21.83
2019-03-09T07:41:09.915Z,23.83
2019-03-09T07:43:38.772Z,20.13
2019-03-09T07:46:07.344Z,24.60
2019-03-09T07:48:35.947Z,13.47
2019-03-09T07:51:04.585Z,16.10
2019-03-09T07:53:33.168Z,19.07
2019-03-09T07:56:01.755Z,19.43
2019-03-09T07:58:30.323Z,15.30
2019-03-09T08:00:58.960Z,16.37
2019-03-09T08:03:27.541Z,20.87
2019-03-09T08:05:56.103Z,15.73
2019-03-09T08:08:24.670Z,23.10
2019-03-09T08:10:53.224Z,17.00
2019-03-09T08:13:21.792Z,18.40
2019-03-09T08:15:50.444Z,26.47
2019-03-09T08:18:19.037Z,21.63
2019-03-09T08:20:47.614Z,18.27
2019-03-09T08:23:16.182Z,23.10
2019-03-09T08:25:44.754Z,26.33
2019-03-09T08:28:13.331Z,22.37
2019-03-09T08:30:41.908Z,21.07
2019-03-09T08:33:10.844Z,17.73
2019-03-09T08:35:39.738Z,24.57
2019-03-09T08:38:08.308Z,23.77
2019-03-09T08:40:36.922Z,23.73
2019-03-09T08:43:05.633Z,27.63
2019-03-09T08:45:34.494Z,23.60
2019-03-09T08:48:03.139Z,23.03
2019-03-09T08:50:31.745Z,24.90
2019-03-09T08:53:00.315Z,21.73
2019-03-09T08:55:28.883Z,32.20
2019-03-09T08:57:57.573Z,28.90
2019-03-09T09:00:35.768Z,27.30
2019-03-09T09:03:04.481Z,30.17
2019-03-09T09:05:33.077Z,32.93
2019-03-09T09:08:03.648Z,33.23
2019-03-09T09:10:32.007Z,30.27
2019-03-09T09:13:00.573Z,33.57
2019-03-09T09:15:29.230Z,35.87
2019-03-09T09:17:57.792Z,39.80
2019-03-09T09:20:27.422Z,35.87
2019-03-09T09:22:55.976Z,31.60
2019-03-09T09:25:24.641Z,39.53
2019-03-09T09:27:53.330Z,35.90
2019-03-09T09:30:29.503Z,31.43
2019-03-09T09:32:58.527Z,35.33
2019-03-09T09:35:27.202Z,32.70
2019-03-09T09:37:55.903Z,39.60
2019-03-09T09:40:26.801Z,32.43
2019-03-09T09:42:55.624Z,30.37
2019-03-09T09:45:24.347Z,47.10
2019-03-09T09:47:52.948Z,33.43
2019-03-09T09:50:21.742Z,42.07
2019-03-09T09:52:50.478Z,45.27
2019-03-09T09:55:19.834Z,35.87
2019-03-09T09:57:48.503Z,37.70
2019-03-09T10:00:24.915Z,46.20
2019-03-09T10:02:53.586Z,46.03
2019-03-09T10:05:22.887Z,35.13
2019-03-09T10:07:51.995Z,40.73
2019-03-09T10:10:23.786Z,36.30
2019-03-09T10:12:52.768Z,37.10
2019-03-09T10:15:24.380Z,42.50
2019-03-09T10:17:53.033Z,28.43
2019-03-09T10:20:21.765Z,39.77
2019-03-09T10:22:50.405Z,29.53
2019-03-09T10:25:19.079Z,30.37
2019-03-09T10:27:47.792Z,38.63
2019-03-09T10:30:19.484Z,39.73
2019-03-09T10:32:48.206Z,44.23
2019-03-09T10:35:16.924Z,36.20
2019-03-09T10:37:45.574Z,44.03
2019-03-09T10:40:15.401Z,40.00
2019-03-09T10:42:44.585Z,42.03
2019-03-09T10:45:17.703Z,48.43
2019-03-09T10:47:46.345Z,53.43
2019-03-09T10:50:17.040Z,47.83
2019-03-09T10:52:45.756Z,43.43
2019-03-09T10:55:26.554Z,49.63
2019-03-09T10:57:55.185Z,46.30
2019-03-09T11:00:38.773Z,42.97
2019-03-09T11:03:07.496Z,50.73
2019-03-09T11:05:36.318Z,47.93
2019-03-09T11:08:05.315Z,52.70
2019-03-09T11:10:33.989Z,59.87
2019-03-09T11:13:02.642Z,59.53
2019-03-09T11:15:31.341Z,46.10
2019-03-09T11:17:59.894Z,48.63
2019-03-09T11:20:28.789Z,53.60
2019-03-09T11:22:57.353Z,57.83
2019-03-09T11:25:25.970Z,52.77
2019-03-09T11:27:55.003Z,49.43
2019-03-09T11:30:26.119Z,53.70
2019-03-09T11:32:54.762Z,56.93
2019-03-09T11:35:23.354Z,51.50
2019-03-09T11:37:51.912Z,66.03
2019-03-09T11:40:20.653Z,54.87
2019-03-09T11:42:49.591Z,50.07
2019-03-09T11:45:19.211Z,56.47
2019-03-09T11:47:49.436Z,46.40
2019-03-09T11:50:18.128Z,46.97
2019-03-09T11:52:46.828Z,45.67
2019-03-09T11:55:17.239Z,54.83
2019-03-09T11:57:45.980Z,47.90
2019-03-09T12:00:19.284Z,41.40
2019-03-09T12:02:48.030Z,38.27
2019-03-09T12:05:16.689Z,36.30
2019-03-09T12:07:45.381Z,43.30
2019-03-09T12:10:14.719Z,38.30
2019-03-09T12:12:43.216Z,36.43
2019-03-09T12:15:14.907Z,28.17
2019-03-09T12:17:43.818Z,37.53
2019-03-09T12:20:14.595Z,33.43
2019-03-09T12:22:43.680Z,36.07
2019-03-09T12:25:16.166Z,34.50
2019-03-09T12:27:44.887Z,33.33
2019-03-09T12:30:18.942Z,28.03
2019-03-09T12:32:47.624Z,29.17
2019-03-09T12:35:16.310Z,27.53
2019-03-09T12:37:44.955Z,28.83
2019-03-09T12:40:20.609Z,31.13
2019-03-09T12:42:49.346Z,33.73
2019-03-09T12:45:18.774Z,35.63
2019-03-09T12:47:48.307Z,32.90
2019-03-09T12:50:19.761Z,30.20
2019-03-09T12:52:49.191Z,31.67
2019-03-09T12:55:18.016Z,29.20
2019-03-09T12:57:49.725Z,30.53
2019-03-09T13:00:21.523Z,23.03
2019-03-09T13:02:50.346Z,28.47
2019-03-09T13:05:19.651Z,31.07
2019-03-09T13:07:48.886Z,28.73
2019-03-09T13:10:18.862Z,29.20
2019-03-09T13:12:49.961Z,30.30
2019-03-09T13:15:19.123Z,36.03
2019-03-09T13:17:47.975Z,27.83
2019-03-09T13:20:17.694Z,33.17
2019-03-09T13:22:46.775Z,34.93
2019-03-09T13:25:16.158Z,36.67
2019-03-09T13:27:45.092Z,29.80
2019-03-09T13:30:28.513Z,35.67
2019-03-09T13:32:56.967Z,30.40
2019-03-09T13:35:26.225Z,32.17
2019-03-09T13:37:54.839Z,31.53
2019-03-09T13:40:23.735Z,36.73
2019-03-09T13:42:52.790Z,34.93
2019-03-09T13:45:21.662Z,30.77
2019-03-09T13:47:51.884Z,35.30
2019-03-09T13:50:20.437Z,38.97
2019-03-09T13:52:49.005Z,26.60
2019-03-09T13:55:17.595Z,29.80
2019-03-09T13:57:46.284Z,27.23
2019-03-09T14:00:16.328Z,26.00
2019-03-09T14:02:45.510Z,25.17
2019-03-09T14:05:14.417Z,25.33
2019-03-09T14:07:43.117Z,25.93
2019-03-09T14:10:16.059Z,27.80
2019-03-09T14:12:45.089Z,27.13
2019-03-09T14:15:15.180Z,30.33
2019-03-09T14:17:44.222Z,25.77
2019-03-09T14:20:14.113Z,27.63
2019-03-09T14:22:43.241Z,25.80
2019-03-09T14:25:17.863Z,28.87
2019-03-09T14:27:46.501Z,32.23
2019-03-09T14:30:16.863Z,28.37
2019-03-09T14:32:45.743Z,28.70
2019-03-09T14:35:14.597Z,29.60
2019-03-09T14:37:43.250Z,32.20
2019-03-09T14:40:14.316Z,27.70
2019-03-09T14:42:43.433Z,29.37
2019-03-09T14:45:17.804Z,34.10
2019-03-09T14:47:46.789Z,31.23
2019-03-09T14:50:15.828Z,32.47
2019-03-09T14:52:44.436Z,36.13
2019-03-09T14:55:13.765Z,29.97
2019-03-09T14:57:42.423Z,32.70
2019-03-09T15:00:25.033Z,36.27
2019-03-09T15:02:53.634Z,33.00
2019-03-09T15:05:22.288Z,30.17
2019-03-09T15:07:50.909Z,32.53
2019-03-09T15:10:19.483Z,33.70
2019-03-09T15:12:48.113Z,33.57
2019-03-09T15:15:18.162Z,33.20
2019-03-09T15:17:46.868Z,33.47
2019-03-09T15:20:16.475Z,32.83
2019-03-09T15:22:45.222Z,35.43
2019-03-09T15:25:16.153Z,36.67
2019-03-09T15:27:45.090Z,39.80
2019-03-09T15:30:15.707Z,39.17
2019-03-09T15:32:44.344Z,40.13
2019-03-09T15:35:13.456Z,37.63
2019-03-09T15:37:42.170Z,37.87
2019-03-09T15:40:13.826Z,43.57
2019-03-09T15:42:42.474Z,39.80
2019-03-09T15:45:20.657Z,39.70
2019-03-09T15:47:49.311Z,37.47
2019-03-09T15:50:22.858Z,37.97
2019-03-09T15:52:51.467Z,39.50
2019-03-09T15:55:20.532Z,32.00
2019-03-09T15:57:49.102Z,32.30
2019-03-09T16:00:25.252Z,33.97
2019-03-09T16:02:53.895Z,37.70
2019-03-09T16:05:22.529Z,28.83
2019-03-09T16:07:51.112Z,39.30
2019-03-09T16:10:21.683Z,42.00
2019-03-09T16:12:50.399Z,37.93
2019-03-09T16:15:19.214Z,37.87
2019-03-09T16:17:48.263Z,32.10
2019-03-09T16:20:26.542Z,33.10
2019-03-09T16:22:56.661Z,30.90
2019-03-09T16:25:25.408Z,30.70
2019-03-09T16:27:54.015Z,33.60
2019-03-09T16:30:23.050Z,34.43
2019-03-09T16:32:52.281Z,34.27
2019-03-09T16:35:22.428Z,37.47
2019-03-09T16:37:51.927Z,47.23
2019-03-09T16:40:21.971Z,46.93
2019-03-09T16:42:50.610Z,44.13
2019-03-09T16:45:19.302Z,46.30
2019-03-09T16:47:47.942Z,45.87
2019-03-09T16:50:17.652Z,36.63
2019-03-09T16:52:46.326Z,35.63
2019-03-09T16:55:15.401Z,37.57
2019-03-09T16:57:44.055Z,40.10
2019-03-09T17:00:26.912Z,37.17
2019-03-09T17:02:55.506Z,31.57
2019-03-09T17:05:24.143Z,34.30
2019-03-09T17:07:52.783Z,33.90
2019-03-09T17:10:21.883Z,40.93
2019-03-09T17:12:50.442Z,42.80
2019-03-09T17:15:21.533Z,39.87
2019-03-09T17:17:51.723Z,40.90
2019-03-09T17:20:20.439Z,44.40
2019-03-09T17:22:49.098Z,31.87
2019-03-09T17:25:17.740Z,40.93
2019-03-09T17:27:46.395Z,38.07
2019-03-09T17:30:19.029Z,45.07
2019-03-09T17:32:48.070Z,39.67
2019-03-09T17:35:16.718Z,38.43
2019-03-09T17:37:46.769Z,41.17
2019-03-09T17:40:16.715Z,42.67
2019-03-09T17:42:45.450Z,47.03
2019-03-09T17:45:22.073Z,41.27
2019-03-09T17:47:50.719Z,33.40
2019-03-09T17:50:19.468Z,38.47
2019-03-09T17:52:48.034Z,39.97
2019-03-09T17:55:16.596Z,39.50
2019-03-09T17:57:45.237Z,38.53
2019-03-09T18:00:26.151Z,39.40
2019-03-09T18:02:54.862Z,36.17
2019-03-09T18:05:23.466Z,31.27
2019-03-09T18:07:52.653Z,31.97
2019-03-09T18:10:27.403Z,31.97
2019-03-09T18:12:55.965Z,36.07
2019-03-09T18:15:24.853Z,44.73
2019-03-09T18:17:53.502Z,34.53
2019-03-09T18:20:22.081Z,33.83
2019-03-09T18:22:50.720Z,31.67
2019-03-09T18:25:19.858Z,31.57
2019-03-09T18:27:48.409Z,33.70
2019-03-09T18:30:17.149Z,33.23
2019-03-09T18:32:45.705Z,29.33
2019-03-09T18:35:14.441Z,31.37
2019-03-09T18:37:43.042Z,29.00
2019-03-09T18:40:16.142Z,25.80
2019-03-09T18:42:44.811Z,27.10
2019-03-09T18:45:18.060Z,27.30
2019-03-09T18:47:46.636Z,36.17
2019-03-09T18:50:15.345Z,23.87
2019-03-09T18:52:44.789Z,23.93
2019-03-09T18:55:13.539Z,29.30
2019-03-09T18:57:42.113Z,25.20
2019-03-09T19:00:20.463Z,22.33
2019-03-09T19:02:49.173Z,26.07
2019-03-09T19:05:18.222Z,23.60
2019-03-09T19:07:46.801Z,23.83
2019-03-09T19:10:17.205Z,25.97
2019-03-09T19:12:45.825Z,31.77
2019-03-09T19:15:16.998Z,17.17
2019-03-09T19:17:45.727Z,27.67
2019-03-09T19:20:16.511Z,21.67
2019-03-09T19:22:45.346Z,28.20
2019-03-09T19:25:15.117Z,22.10
2019-03-09T19:27:45.956Z,26.63
2019-03-09T19:30:19.879Z,27.60
2019-03-09T19:32:48.447Z,29.30
2019-03-09T19:35:17.169Z,35.73
2019-03-09T19:37:45.822Z,27.83
2019-03-09T19:40:19.521Z,43.53
2019-03-09T19:42:48.097Z,40.40
2019-03-09T19:45:21.582Z,46.17
2019-03-09T19:47:50.181Z,56.37
2019-03-09T19:50:28.598Z,56.77
2019-03-09T19:52:58.963Z,59.40
2019-03-09T19:55:27.456Z,59.37
2019-03-09T19:57:56.141Z,51.10
2019-03-09T20:00:24.714Z,56.20
2019-03-09T20:02:53.386Z,48.17
2019-03-09T20:05:21.945Z,50.07
2019-03-09T20:07:50.662Z,43.97
2019-03-09T20:10:20.595Z,54.17
2019-03-09T20:12:49.267Z,54.97
2019-03-09T20:15:18.982Z,50.70
2019-03-09T20:20:26.857Z,48.07
2019-03-09T20:22:55.443Z,45.03
2019-03-09T20:25:24.122Z,41.83
2019-03-09T20:27:53.029Z,50.77
2019-03-09T20:30:22.162Z,36.27
2019-03-09T20:32:51.151Z,45.47
2019-03-09T20:35:20.035Z,44.97
2019-03-09T20:37:49.588Z,46.47
2019-03-09T20:40:20.847Z,40.57
2019-03-09T20:42:51.098Z,42.03
2019-03-09T20:45:23.430Z,42.60
2019-03-09T20:47:52.478Z,39.57
2019-03-09T20:50:24.267Z,29.60
2019-03-09T20:52:52.967Z,29.90
2019-03-09T20:55:21.559Z,42.00
2019-03-09T20:57:50.172Z,42.63
2019-03-09T21:00:23.006Z,34.43
2019-03-09T21:02:51.677Z,37.13
2019-03-09T21:05:20.392Z,38.30
2019-03-09T21:07:49.608Z,30.97
2019-03-09T21:10:19.303Z,41.20
2019-03-09T21:13:00.044Z,36.67
2019-03-09T21:15:29.635Z,37.83
2019-03-09T21:17:58.291Z,35.70
2019-03-09T21:20:26.944Z,35.27
2019-03-09T21:22:55.586Z,29.93
2019-03-09T21:25:24.156Z,31.53
2019-03-09T21:27:53.127Z,38.97
2019-03-09T21:30:21.845Z,33.10
2019-03-09T21:32:51.972Z,36.33
2019-03-09T21:35:20.608Z,26.57
2019-03-09T21:37:49.303Z,32.03
2019-03-09T21:40:17.931Z,32.73
2019-03-09T21:42:46.594Z,31.30
2019-03-09T21:45:15.696Z,27.13
2019-03-09T21:47:44.365Z,29.30
2019-03-09T21:50:14.706Z,25.87
2019-03-09T21:52:43.345Z,29.27
2019-03-09T21:55:16.885Z,23.17
2019-03-09T21:57:45.581Z,23.63
2019-03-09T22:00:16.852Z,27.30
2019-03-09T22:02:45.559Z,28.73
2019-03-09T22:05:14.272Z,26.80
2019-03-09T22:07:42.902Z,28.20
2019-03-09T22:10:12.475Z,23.87
2019-03-09T22:12:41.088Z,30.40
2019-03-09T22:15:14.540Z,29.00
2019-03-09T22:17:43.180Z,21.67
2019-03-09T22:20:13.326Z,26.87
2019-03-09T22:22:42.032Z,23.27
2019-03-09T22:25:11.861Z,24.43
2019-03-09T22:27:40.447Z,27.37
2019-03-09T22:30:22.388Z,26.23
2019-03-09T22:32:50.958Z,30.23
2019-03-09T22:35:19.543Z,24.23
2019-03-09T22:37:48.473Z,23.30
2019-03-09T22:40:18.201Z,28.47
2019-03-09T22:42:46.776Z,32.30
2019-03-09T22:45:16.950Z,24.20
2019-03-09T22:47:45.518Z,31.33
2019-03-09T22:50:21.245Z,27.67
2019-03-09T22:52:49.806Z,35.57
2019-03-09T22:55:18.556Z,28.70
2019-03-09T22:57:47.178Z,34.60
2019-03-09T23:00:24.023Z,27.07
2019-03-09T23:02:52.676Z,30.27
2019-03-09T23:05:21.347Z,30.03
2019-03-09T23:07:50.004Z,31.63
2019-03-09T23:10:23.461Z,34.00
2019-03-09T23:12:52.121Z,24.67
2019-03-09T23:15:20.814Z,27.37
2019-03-09T23:17:49.448Z,30.13
2019-03-09T23:20:18.139Z,39.33
2019-03-09T23:22:46.778Z,32.13
2019-03-09T23:25:16.112Z,32.60
2019-03-09T23:27:45.120Z,33.20
2019-03-09T23:30:16.076Z,38.23
2019-03-09T23:32:44.786Z,38.73
2019-03-09T23:35:13.488Z,35.40
2019-03-09T23:37:42.189Z,38.90
2019-03-09T23:40:13.120Z,33.80
2019-03-09T23:42:41.740Z,35.13
2019-03-09T23:45:13.397Z,41.50
2019-03-09T23:47:42.206Z,35.20
2019-03-09T23:50:18.026Z,32.00
2019-03-09T23:52:47.053Z,36.60
2019-03-09T23:55:22.041Z,36.10
2019-03-09T23:57:47.233Z,35.30
